Time;durP1;ratioP1;P1;durP2;ratioP2;P2;SDS_P1;SDS_P2;PMS_P1;PMS_P2;Temp;Humidity;BMP_temperature;BMP_pressure;BME280_temperature;BME280_humidity;BME280_pressure;Samples;Min_cycle;Max_cycle;Signal;HPM_P1;HPM_P2
2023/05/08 00:00:22;;;;;;;31.88;18.50;;;17.00;99.90;;;;;;5048794;28;20584;-76
2023/05/08 00:02:48;;;;;;;32.88;16.92;;;17.00;99.90;;;;;;5057205;28;20174;-76
2023/05/08 00:05:14;;;;;;;30.92;18.80;;;17.00;99.90;;;;;;5053282;28;21053;-76
2023/05/08 00:07:40;;;;;;;31.48;18.90;;;16.90;99.90;;;;;;5047155;28;20669;-76
2023/05/08 00:10:07;;;;;;;35.63;19.85;;;16.90;99.90;;;;;;5058953;28;20225;-77
2023/05/08 00:12:33;;;;;;;28.67;17.35;;;17.00;99.90;;;;;;5050031;28;20189;-76
2023/05/08 00:14:59;;;;;;;31.52;17.20;;;16.90;99.90;;;;;;5054732;28;20185;-77
2023/05/08 00:17:25;;;;;;;34.72;19.55;;;16.90;99.90;;;;;;5048240;28;20186;-76
2023/05/08 00:19:51;;;;;;;38.15;19.08;;;16.90;99.90;;;;;;5054427;28;20233;-76
2023/05/08 00:22:17;;;;;;;29.10;18.08;;;16.90;99.90;;;;;;5052736;28;20193;-76
2023/05/08 00:24:43;;;;;;;28.88;17.48;;;16.90;99.90;;;;;;5045320;28;20193;-77
2023/05/08 00:27:09;;;;;;;33.45;17.88;;;16.80;99.90;;;;;;5049641;28;20266;-76
2023/05/08 00:29:35;;;;;;;32.40;17.25;;;16.80;99.90;;;;;;5045786;28;20213;-77
2023/05/08 00:32:01;;;;;;;33.65;17.23;;;16.70;99.90;;;;;;5049688;28;20182;-77
2023/05/08 00:34:27;;;;;;;29.73;17.13;;;16.70;99.90;;;;;;5050444;28;20261;-76
2023/05/08 00:36:54;;;;;;;32.00;17.02;;;16.70;99.90;;;;;;5050999;28;20328;-77
2023/05/08 00:39:20;;;;;;;30.58;17.65;;;16.70;99.90;;;;;;5054187;28;20213;-77
2023/05/08 00:41:46;;;;;;;30.80;18.52;;;16.70;99.90;;;;;;5058815;28;20650;-77
2023/05/08 00:44:12;;;;;;;31.10;17.25;;;16.60;99.90;;;;;;5050495;28;20193;-78
2023/05/08 00:46:37;;;;;;;30.23;18.33;;;16.60;99.90;;;;;;5046000;28;20213;-77
2023/05/08 00:49:04;;;;;;;27.17;17.38;;;16.50;99.90;;;;;;5048944;28;20198;-77
2023/05/08 00:51:30;;;;;;;29.95;18.92;;;16.50;99.90;;;;;;5038321;28;20189;-78
2023/05/08 00:53:57;;;;;;;34.10;18.45;;;16.40;99.90;;;;;;5049651;28;20185;-77
2023/05/08 00:56:23;;;;;;;32.88;18.92;;;16.30;99.90;;;;;;5085626;28;20269;-77
2023/05/08 00:58:49;;;;;;;33.83;20.67;;;16.30;99.90;;;;;;5048909;28;20659;-76
2023/05/08 01:01:15;;;;;;;31.30;18.48;;;16.20;99.90;;;;;;5052276;28;20552;-78
2023/05/08 01:03:42;;;;;;;30.83;18.45;;;16.10;99.90;;;;;;5048335;28;20190;-77
2023/05/08 01:06:08;;;;;;;33.40;18.95;;;16.10;99.90;;;;;;5040212;28;20183;-77
2023/05/08 01:08:34;;;;;;;30.40;19.73;;;16.10;99.90;;;;;;5035475;28;20193;-77
2023/05/08 01:11:08;;;;;;;35.40;19.98;;;16.10;99.90;;;;;;5040807;28;20188;-77
2023/05/08 01:13:46;;;;;;;37.00;20.70;;;16.00;99.90;;;;;;5048728;28;20189;-77
2023/05/08 01:16:18;;;;;;;45.25;22.42;;;16.00;99.90;;;;;;5076217;28;20634;-77
2023/05/08 01:19:10;;;;;;;42.88;22.40;;;15.90;99.90;;;;;;5045465;28;20230;-77
2023/05/08 01:21:50;;;;;;;41.45;22.17;;;16.00;99.90;;;;;;5046848;28;20190;-76
2023/05/08 01:24:50;;;;;;;36.50;22.30;;;15.90;99.90;;;;;;5047862;28;20573;-76
2023/05/08 01:27:35;;;;;;;38.67;22.65;;;15.90;99.90;;;;;;5047122;28;20213;-76
2023/05/08 01:30:06;;;;;;;42.08;22.02;;;15.90;99.90;;;;;;5043763;28;20277;-76
2023/05/08 01:33:06;;;;;;;40.70;24.15;;;15.90;99.90;;;;;;5053114;28;20239;-75
2023/05/08 01:35:42;;;;;;;41.53;23.73;;;16.00;99.90;;;;;;5044986;28;20666;-77
2023/05/08 01:38:17;;;;;;;42.63;21.98;;;16.00;99.90;;;;;;5053270;28;20639;-77
2023/05/08 01:40:46;;;;;;;42.35;24.38;;;16.00;99.90;;;;;;5040269;28;20217;-77
2023/05/08 01:43:40;;;;;;;37.65;22.23;;;16.00;99.90;;;;;;5074906;28;20599;-76
2023/05/08 01:46:12;;;;;;;43.50;23.15;;;16.00;99.90;;;;;;5041981;28;20272;-76
2023/05/08 01:48:49;;;;;;;40.35;23.60;;;16.10;99.90;;;;;;5051899;28;20181;-76
2023/05/08 01:51:22;;;;;;;42.55;23.00;;;15.90;99.90;;;;;;5049200;28;20215;-76
2023/05/08 01:53:54;;;;;;;47.28;24.45;;;15.90;99.90;;;;;;5044215;28;20179;-77
2023/05/08 01:56:23;;;;;;;46.22;25.58;;;15.90;99.90;;;;;;5049403;28;20663;-77
2023/05/08 01:58:51;;;;;;;50.55;26.77;;;15.90;99.90;;;;;;5050404;28;20288;-77
2023/05/08 02:01:21;;;;;;;49.20;25.85;;;15.80;99.90;;;;;;5052157;28;20246;-76
2023/05/08 02:03:48;;;;;;;44.38;26.38;;;15.80;99.90;;;;;;5037689;28;20265;-77
2023/05/08 02:06:18;;;;;;;52.20;26.70;;;15.80;99.90;;;;;;5052543;28;20528;-77
2023/05/08 02:08:45;;;;;;;46.72;25.27;;;15.70;99.90;;;;;;5084852;28;20197;-77
2023/05/08 02:11:13;;;;;;;55.05;27.55;;;15.60;99.90;;;;;;5047298;28;20193;-78
2023/05/08 02:13:40;;;;;;;56.53;29.20;;;15.60;99.90;;;;;;5051244;28;20208;-77
2023/05/08 02:16:08;;;;;;;48.88;26.67;;;15.50;99.90;;;;;;5051088;28;20700;-78
2023/05/08 02:18:36;;;;;;;56.50;29.58;;;15.50;99.90;;;;;;5045796;28;20640;-77
2023/05/08 02:21:04;;;;;;;52.97;27.05;;;15.50;99.90;;;;;;5050371;28;20220;-77
2023/05/08 02:23:33;;;;;;;58.53;29.30;;;15.50;99.90;;;;;;5052838;28;20209;-77
2023/05/08 02:26:01;;;;;;;55.53;28.65;;;15.50;99.90;;;;;;5046958;28;20220;-77
2023/05/08 02:28:28;;;;;;;57.60;30.55;;;15.60;99.90;;;;;;5051057;28;20268;-77
2023/05/08 02:30:56;;;;;;;57.10;30.77;;;15.60;99.90;;;;;;5051921;28;20186;-77
2023/05/08 02:33:23;;;;;;;74.13;34.33;;;15.60;99.90;;;;;;5052123;28;20243;-77
2023/05/08 02:35:50;;;;;;;65.40;33.03;;;15.70;99.90;;;;;;5051135;28;20186;-77
2023/05/08 02:38:20;;;;;;;84.95;37.22;;;15.70;99.90;;;;;;5054211;28;20262;-76
2023/05/08 02:40:49;;;;;;;77.72;33.92;;;15.60;99.90;;;;;;5052206;28;20267;-77
2023/05/08 02:43:15;;;;;;;89.05;36.17;;;15.60;99.90;;;;;;5041759;28;20256;-77
2023/05/08 02:46:11;;;;;;;95.25;37.28;;;15.50;99.90;;;;;;5047138;28;20627;-77
2023/05/08 02:48:59;;;;;;;86.55;36.80;;;15.60;99.90;;;;;;5039713;28;20256;-77
2023/05/08 02:51:41;;;;;;;90.63;39.33;;;15.60;99.90;;;;;;5045249;28;20204;-77
2023/05/08 02:54:16;;;;;;;92.90;39.08;;;15.70;99.90;;;;;;5044448;28;20189;-78
2023/05/08 02:57:05;;;;;;;79.10;37.50;;;15.80;99.90;;;;;;5047590;28;20182;-77
2023/05/08 02:59:40;;;;;;;98.13;42.42;;;15.80;99.90;;;;;;5054554;28;20658;-77
2023/05/08 03:02:08;;;;;;;105.80;41.78;;;15.70;99.90;;;;;;5052178;28;20189;-77
2023/05/08 03:04:40;;;;;;;113.57;43.88;;;15.70;99.90;;;;;;5052128;28;20269;-77
2023/05/08 03:07:06;;;;;;;111.03;44.03;;;15.70;99.90;;;;;;5052164;28;20193;-77
2023/05/08 03:09:49;;;;;;;114.95;46.00;;;15.80;99.90;;;;;;5042520;28;20182;-76
2023/05/08 03:12:20;;;;;;;129.52;48.15;;;15.70;99.90;;;;;;5052067;28;20268;-77
2023/05/08 03:14:56;;;;;;;143.32;53.65;;;15.70;99.90;;;;;;5047934;28;20517;-78
2023/05/08 03:17:24;;;;;;;142.50;53.72;;;15.80;99.90;;;;;;5052048;28;20185;-77
2023/05/08 03:19:55;;;;;;;139.18;55.53;;;15.70;99.90;;;;;;5083141;28;20225;-77
2023/05/08 03:22:22;;;;;;;118.78;49.45;;;15.70;99.90;;;;;;5049231;28;20193;-77
2023/05/08 03:24:50;;;;;;;136.98;51.70;;;15.70;99.90;;;;;;5071663;28;20716;-77
2023/05/08 03:27:17;;;;;;;144.68;54.70;;;15.80;99.90;;;;;;5043918;28;20190;-77
2023/05/08 03:29:44;;;;;;;131.55;57.20;;;15.80;99.90;;;;;;5050426;28;20276;-78
2023/05/08 03:32:11;;;;;;;145.75;56.28;;;15.80;99.90;;;;;;5050560;28;20197;-77
2023/05/08 03:34:38;;;;;;;138.38;50.10;;;15.70;99.90;;;;;;5035772;28;20644;-76
2023/05/08 03:37:04;;;;;;;138.18;50.85;;;15.70;99.90;;;;;;5047478;28;20643;-78
2023/05/08 03:39:30;;;;;;;111.05;49.78;;;15.70;99.90;;;;;;5054417;28;20240;-77
2023/05/08 03:41:56;;;;;;;104.40;44.70;;;15.80;99.90;;;;;;5054981;28;20201;-78
2023/05/08 03:44:23;;;;;;;119.40;47.45;;;15.80;99.90;;;;;;5047841;28;20511;-77
2023/05/08 03:46:51;;;;;;;106.40;41.22;;;15.70;99.90;;;;;;5051715;28;20182;-78
2023/05/08 03:49:18;;;;;;;104.75;42.65;;;15.70;99.90;;;;;;5049255;28;20978;-77
2023/05/08 03:51:44;;;;;;;112.70;42.33;;;15.60;99.90;;;;;;5044706;28;20183;-77
2023/05/08 03:54:10;;;;;;;103.50;39.05;;;15.60;99.90;;;;;;5052064;28;20544;-77
2023/05/08 03:56:36;;;;;;;89.65;37.45;;;15.60;99.90;;;;;;5054459;28;20188;-76
2023/05/08 03:59:20;;;;;;;91.20;36.63;;;15.50;99.90;;;;;;5054613;28;20249;-77
2023/05/08 04:02:07;;;;;;;94.93;40.92;;;15.50;99.90;;;;;;5054871;28;20181;-76
2023/05/08 04:04:42;;;;;;;91.20;41.28;;;15.50;99.90;;;;;;5045023;28;20177;-77
2023/05/08 04:07:16;;;;;;;103.50;43.70;;;15.50;99.90;;;;;;5054249;28;20628;-77
2023/05/08 04:09:54;;;;;;;92.03;41.97;;;15.50;99.90;;;;;;5051557;28;20186;-78
2023/05/08 04:12:39;;;;;;;105.53;44.78;;;15.60;99.90;;;;;;5054650;28;20182;-77
2023/05/08 04:15:18;;;;;;;107.55;41.40;;;15.60;99.90;;;;;;5046924;28;20279;-75
2023/05/08 04:17:52;;;;;;;79.90;37.45;;;15.50;99.90;;;;;;5052685;28;20178;-77
2023/05/08 04:20:21;;;;;;;89.03;36.95;;;15.60;99.90;;;;;;5054045;28;20279;-77
2023/05/08 04:22:48;;;;;;;90.22;37.78;;;15.60;99.90;;;;;;5051482;28;20749;-79
2023/05/08 04:25:16;;;;;;;94.20;36.67;;;15.60;99.90;;;;;;5082578;28;20182;-79
2023/05/08 04:27:43;;;;;;;90.28;40.15;;;15.60;99.90;;;;;;5053997;28;20239;-77
2023/05/08 04:30:09;;;;;;;99.53;38.92;;;15.70;99.90;;;;;;5052114;28;20663;-81
2023/05/08 04:32:36;;;;;;;95.07;40.10;;;15.70;99.90;;;;;;5053795;28;20261;-78
2023/05/08 04:35:03;;;;;;;88.18;41.50;;;15.70;99.90;;;;;;5049179;28;20179;-70
2023/05/08 04:37:32;;;;;;;90.43;40.10;;;15.60;99.90;;;;;;5049332;28;20304;-71
2023/05/08 04:39:59;;;;;;;104.00;41.15;;;15.60;99.90;;;;;;5053525;28;20659;-71
2023/05/08 04:42:25;;;;;;;98.28;44.35;;;15.50;99.90;;;;;;5054618;28;20186;-71
2023/05/08 04:44:52;;;;;;;98.50;40.20;;;15.50;99.90;;;;;;5050081;28;20247;-71
2023/05/08 04:47:17;;;;;;;95.90;38.17;;;15.60;99.90;;;;;;5047352;28;20638;-70
2023/05/08 04:49:43;;;;;;;84.72;37.70;;;15.60;99.90;;;;;;5082608;28;20185;-71
2023/05/08 04:52:09;;;;;;;89.30;37.33;;;15.60;99.90;;;;;;5050903;28;20546;-71
2023/05/08 04:54:35;;;;;;;96.60;39.00;;;15.60;99.90;;;;;;5053043;28;20184;-72
2023/05/08 04:57:00;;;;;;;109.07;42.42;;;15.60;99.90;;;;;;5052867;28;20532;-71
2023/05/08 04:59:28;;;;;;;110.25;44.28;;;15.60;99.90;;;;;;5052753;28;20220;-71
2023/05/08 05:01:54;;;;;;;118.95;46.75;;;15.60;99.90;;;;;;5080215;28;20332;-73
2023/05/08 05:04:21;;;;;;;120.82;46.28;;;15.80;99.90;;;;;;5069458;28;20182;-70
2023/05/08 05:06:47;;;;;;;127.28;45.90;;;15.70;99.90;;;;;;5053407;28;20190;-72
2023/05/08 05:09:12;;;;;;;119.68;44.53;;;15.70;99.90;;;;;;5052850;28;20643;-69
2023/05/08 05:11:38;;;;;;;104.88;42.55;;;15.70;99.90;;;;;;5043295;28;20185;-69
2023/05/08 05:14:05;;;;;;;116.00;45.08;;;15.80;99.90;;;;;;5047934;28;20190;-69
2023/05/08 05:16:30;;;;;;;113.15;44.60;;;15.80;99.90;;;;;;5047411;28;20619;-71
2023/05/08 05:18:56;;;;;;;122.45;42.72;;;16.00;99.90;;;;;;5048701;28;20238;-74
2023/05/08 05:21:22;;;;;;;116.47;43.67;;;15.90;99.90;;;;;;5049254;28;20263;-73
2023/05/08 05:23:47;;;;;;;117.75;44.88;;;16.00;99.90;;;;;;5052949;28;20193;-75
2023/05/08 05:26:13;;;;;;;109.70;42.80;;;16.00;99.90;;;;;;5051323;28;20201;-74
2023/05/08 05:28:38;;;;;;;102.72;40.38;;;16.10;99.90;;;;;;5085464;28;20189;-72
2023/05/08 05:31:04;;;;;;;102.68;44.25;;;16.10;99.90;;;;;;5053188;28;20727;-74
2023/05/08 05:33:30;;;;;;;116.80;45.22;;;16.10;99.90;;;;;;5047939;28;20188;-74
2023/05/08 05:35:56;;;;;;;132.80;48.22;;;16.10;99.90;;;;;;5037599;28;20195;-74
2023/05/08 05:38:21;;;;;;;128.98;45.30;;;16.10;99.90;;;;;;5050509;28;20631;-74
2023/05/08 05:40:47;;;;;;;131.35;49.53;;;16.10;99.90;;;;;;5052552;28;20222;-75
2023/05/08 05:43:13;;;;;;;119.93;42.22;;;16.30;99.90;;;;;;5041406;28;20581;-74
2023/05/08 05:45:39;;;;;;;116.10;43.50;;;16.20;99.90;;;;;;5047922;28;20260;-74
2023/05/08 05:48:05;;;;;;;119.03;42.80;;;16.20;99.90;;;;;;5033238;28;20690;-74
2023/05/08 05:50:31;;;;;;;112.00;43.92;;;16.00;99.90;;;;;;5044878;28;20189;-74
2023/05/08 05:52:57;;;;;;;109.88;43.00;;;16.00;99.90;;;;;;5044014;28;20224;-74
2023/05/08 05:55:22;;;;;;;115.57;44.63;;;16.20;99.90;;;;;;5047763;28;20213;-75
2023/05/08 05:57:48;;;;;;;111.88;44.30;;;16.30;99.90;;;;;;5044517;28;20238;-74
2023/05/08 06:00:15;;;;;;;115.43;42.92;;;16.20;99.90;;;;;;5042370;28;20296;-74
2023/05/08 06:02:42;;;;;;;115.60;44.22;;;16.20;99.90;;;;;;5052844;28;20540;-74
2023/05/08 06:05:09;;;;;;;111.00;42.45;;;16.30;99.90;;;;;;5052099;28;20182;-75
2023/05/08 06:07:35;;;;;;;125.35;44.90;;;16.40;99.90;;;;;;5047258;28;20322;-75
2023/05/08 06:10:00;;;;;;;128.07;47.25;;;16.50;99.90;;;;;;5037966;28;20191;-75
2023/05/08 06:12:27;;;;;;;131.80;45.25;;;16.60;99.90;;;;;;5038280;28;20193;-75
2023/05/08 06:14:53;;;;;;;127.00;44.42;;;16.70;99.90;;;;;;5043631;28;20184;-75
2023/05/08 06:17:19;;;;;;;130.50;45.67;;;16.70;99.90;;;;;;5051316;28;20185;-75
2023/05/08 06:19:49;;;;;;;119.47;43.72;;;16.80;99.90;;;;;;5040214;28;20274;-75
2023/05/08 06:22:18;;;;;;;120.47;41.33;;;16.90;99.90;;;;;;5052018;28;20189;-76
2023/05/08 06:24:44;;;;;;;125.25;41.13;;;17.00;99.90;;;;;;5051119;28;20638;-75
2023/05/08 06:27:10;;;;;;;122.00;41.72;;;17.10;99.90;;;;;;5046343;28;20190;-75
2023/05/08 06:29:36;;;;;;;120.85;42.30;;;17.00;99.90;;;;;;5044187;28;20183;-75
2023/05/08 06:32:02;;;;;;;120.85;42.08;;;17.20;99.90;;;;;;5051715;28;20189;-74
2023/05/08 06:34:28;;;;;;;140.73;44.85;;;17.30;99.90;;;;;;5051948;28;20273;-75
2023/05/08 06:36:53;;;;;;;125.30;42.78;;;17.30;99.90;;;;;;5047184;28;20629;-74
2023/05/08 06:39:19;;;;;;;122.43;42.33;;;17.40;99.90;;;;;;5046652;28;20265;-73
2023/05/08 06:41:48;;;;;;;129.80;44.42;;;17.60;99.90;;;;;;5045656;28;20181;-75
2023/05/08 06:44:14;;;;;;;120.90;41.60;;;17.60;99.90;;;;;;5043177;28;20197;-74
2023/05/08 06:46:40;;;;;;;119.53;42.20;;;17.70;99.90;;;;;;5040042;28;20241;-76
2023/05/08 06:49:07;;;;;;;121.88;41.95;;;17.70;99.90;;;;;;5050868;28;20217;-74
2023/05/08 06:51:34;;;;;;;111.50;39.80;;;17.40;99.90;;;;;;5051761;28;20260;-75
2023/05/08 06:54:00;;;;;;;106.78;35.33;;;17.50;99.90;;;;;;5049316;28;20178;-73
2023/05/08 06:56:26;;;;;;;115.05;39.78;;;17.50;99.90;;;;;;5051888;28;20197;-73
2023/05/08 06:58:52;;;;;;;122.15;39.30;;;17.50;99.90;;;;;;5050838;28;20213;-73
2023/05/08 07:01:17;;;;;;;116.63;39.70;;;17.50;99.90;;;;;;5032164;28;20287;-73
2023/05/08 07:03:43;;;;;;;114.80;41.20;;;17.40;99.90;;;;;;5046786;28;20189;-75
2023/05/08 07:06:09;;;;;;;99.57;37.97;;;17.30;99.90;;;;;;5053010;28;20186;-73
2023/05/08 07:08:36;;;;;;;109.47;38.60;;;17.40;99.90;;;;;;5054783;28;20217;-73
2023/05/08 07:11:02;;;;;;;112.88;35.90;;;17.50;99.90;;;;;;5052260;28;20198;-72
2023/05/08 07:13:28;;;;;;;110.07;38.90;;;17.50;99.90;;;;;;5054367;28;20597;-72
2023/05/08 07:15:54;;;;;;;89.38;32.53;;;17.50;99.90;;;;;;5042481;28;20190;-75
2023/05/08 07:18:21;;;;;;;98.30;34.25;;;17.50;99.90;;;;;;5046177;28;20271;-74
2023/05/08 07:20:46;;;;;;;86.82;31.90;;;17.70;99.90;;;;;;5048123;28;20682;-75
2023/05/08 07:23:12;;;;;;;81.00;33.92;;;17.70;99.90;;;;;;5045657;28;20193;-73
2023/05/08 07:25:38;;;;;;;80.28;31.98;;;17.70;99.90;;;;;;5052361;28;20192;-74
2023/05/08 07:28:04;;;;;;;82.15;31.15;;;17.80;99.90;;;;;;5043519;28;20186;-73
2023/05/08 07:30:30;;;;;;;81.05;28.65;;;17.70;99.90;;;;;;5046424;28;20190;-73
2023/05/08 07:32:56;;;;;;;73.25;29.50;;;17.50;99.90;;;;;;5082862;28;20189;-74
2023/05/08 07:35:21;;;;;;;82.47;30.67;;;17.30;99.90;;;;;;5044205;28;20186;-74
2023/05/08 07:37:47;;;;;;;74.13;28.10;;;16.90;99.90;;;;;;5055768;28;20182;-73
2023/05/08 07:40:13;;;;;;;69.15;29.10;;;16.70;99.90;;;;;;5045166;28;20348;-73
2023/05/08 07:42:42;;;;;;;71.25;29.08;;;16.70;99.90;;;;;;5046466;28;20262;-73
2023/05/08 07:45:10;;;;;;;79.57;29.95;;;16.60;99.90;;;;;;5044508;28;20204;-74
2023/05/08 07:47:36;;;;;;;70.00;26.15;;;16.70;99.90;;;;;;5048976;28;20590;-74
2023/05/08 07:50:02;;;;;;;79.63;28.95;;;16.70;99.90;;;;;;5035980;28;20185;-73
2023/05/08 07:52:28;;;;;;;81.82;30.70;;;16.70;99.90;;;;;;5054665;28;20182;-73
2023/05/08 07:54:53;;;;;;;74.65;29.08;;;16.90;99.90;;;;;;5054263;28;20670;-74
2023/05/08 07:57:19;;;;;;;77.28;26.85;;;16.90;99.90;;;;;;5070087;28;20193;-73
2023/05/08 07:59:45;;;;;;;64.22;27.67;;;16.90;99.90;;;;;;5044773;28;20218;-74
2023/05/08 08:02:10;;;;;;;69.30;30.48;;;16.90;99.90;;;;;;5051905;28;20197;-74
2023/05/08 08:04:36;;;;;;;67.30;24.77;;;16.90;99.90;;;;;;5046756;28;20227;-74
2023/05/08 08:07:02;;;;;;;70.68;26.98;;;16.90;99.90;;;;;;5082084;28;20529;-73
2023/05/08 08:09:28;;;;;;;69.57;26.90;;;16.90;99.90;;;;;;5055258;28;20269;-73
2023/05/08 08:11:53;;;;;;;66.10;24.98;;;17.00;99.90;;;;;;5049456;28;20716;-74
2023/05/08 08:14:19;;;;;;;75.55;28.35;;;17.20;99.90;;;;;;5054630;28;20193;-74
2023/05/08 08:16:45;;;;;;;70.35;26.45;;;17.20;99.90;;;;;;5046956;28;20237;-73
2023/05/08 08:19:10;;;;;;;72.53;27.85;;;17.30;99.90;;;;;;5037610;28;20566;-74
2023/05/08 08:21:43;;;;;;;68.68;25.20;;;17.60;99.90;;;;;;5037670;28;20230;-74
2023/05/08 08:24:09;;;;;;;69.93;27.92;;;17.80;99.90;;;;;;5044742;28;20187;-73
2023/05/08 08:26:35;;;;;;;78.85;28.27;;;17.80;99.90;;;;;;5053178;28;20666;-73
2023/05/08 08:29:01;;;;;;;78.03;28.92;;;18.00;99.90;;;;;;5054548;28;20178;-74
2023/05/08 08:31:26;;;;;;;66.72;27.63;;;17.80;99.90;;;;;;5053199;28;20202;-74
2023/05/08 08:33:52;;;;;;;68.70;26.88;;;18.00;99.90;;;;;;5054390;28;20182;-75
2023/05/08 08:36:19;;;;;;;71.63;27.95;;;18.10;99.90;;;;;;5049710;28;20185;-74
2023/05/08 08:38:44;;;;;;;72.18;25.77;;;18.10;99.90;;;;;;5044093;28;20527;-74
2023/05/08 08:41:13;;;;;;;69.82;26.58;;;18.40;99.90;;;;;;5052941;28;20190;-74
2023/05/08 08:43:42;;;;;;;71.80;27.25;;;18.20;99.90;;;;;;5045845;28;20206;-74
2023/05/08 08:46:14;;;;;;;62.10;25.02;;;18.40;99.90;;;;;;5054124;28;20190;-74
2023/05/08 08:48:45;;;;;;;72.07;26.92;;;18.80;99.90;;;;;;5051046;28;20182;-74
2023/05/08 08:51:22;;;;;;;70.00;28.38;;;19.00;99.90;;;;;;5045415;28;20209;-73
2023/05/08 08:53:53;;;;;;;59.40;26.08;;;19.30;99.90;;;;;;5044900;28;20256;-73
2023/05/08 08:56:22;;;;;;;71.20;27.63;;;19.30;99.90;;;;;;5052581;28;20185;-74
2023/05/08 08:58:55;;;;;;;64.80;25.30;;;19.10;99.90;;;;;;5048982;28;20179;-73
2023/05/08 09:01:22;;;;;;;58.72;23.90;;;19.10;99.90;;;;;;5054199;28;20186;-73
2023/05/08 09:03:48;;;;;;;57.67;24.52;;;19.50;99.90;;;;;;5053685;28;20186;-74
2023/05/08 09:06:14;;;;;;;55.88;24.30;;;19.70;99.90;;;;;;5035672;28;20203;-74
2023/05/08 09:08:41;;;;;;;58.42;23.05;;;19.80;99.90;;;;;;5048568;28;20649;-74
2023/05/08 09:11:07;;;;;;;56.92;22.17;;;20.00;99.90;;;;;;5040581;28;20178;-73
2023/05/08 09:13:32;;;;;;;51.25;22.52;;;19.80;99.90;;;;;;5079200;28;20544;-74
2023/05/08 09:15:59;;;;;;;48.63;21.70;;;19.80;99.90;;;;;;5052224;28;20182;-74
2023/05/08 09:18:24;;;;;;;54.20;21.95;;;20.00;99.90;;;;;;5043762;28;20241;-74
2023/05/08 09:20:50;;;;;;;47.97;22.17;;;20.60;99.90;;;;;;5049734;28;20210;-74
2023/05/08 09:23:17;;;;;;;45.03;18.92;;;21.10;99.90;;;;;;5050782;28;20178;-74
2023/05/08 09:25:44;;;;;;;51.63;20.50;;;21.80;99.90;;;;;;5044779;28;20643;-73
2023/05/08 09:28:21;;;;;;;44.50;18.92;;;22.50;99.90;;;;;;5051291;28;20757;-73
2023/05/08 09:30:57;;;;;;;44.60;18.63;;;22.70;99.90;;;;;;5049564;28;20186;-74
2023/05/08 09:33:26;;;;;;;51.17;20.17;;;22.40;99.90;;;;;;5041008;28;20654;-74
2023/05/08 09:35:52;;;;;;;44.15;18.85;;;22.30;99.90;;;;;;5052946;28;20192;-75
2023/05/08 09:38:35;;;;;;;43.20;18.23;;;22.50;99.90;;;;;;5052570;28;20247;-74
2023/05/08 09:41:09;;;;;;;50.88;21.65;;;22.80;99.90;;;;;;5044415;28;20264;-74
2023/05/08 09:43:35;;;;;;;53.15;19.55;;;22.80;99.90;;;;;;5052673;28;20577;-74
2023/05/08 09:46:23;;;;;;;45.13;19.05;;;22.70;99.90;;;;;;5050703;28;20178;-76
2023/05/08 09:48:51;;;;;;;47.10;20.98;;;22.50;99.90;;;;;;5040064;28;20182;-74
2023/05/08 09:51:18;;;;;;;37.92;18.35;;;21.90;99.90;;;;;;5051912;28;20190;-74
2023/05/08 09:53:44;;;;;;;49.65;19.05;;;22.10;99.90;;;;;;5051036;28;20178;-74
2023/05/08 09:56:10;;;;;;;44.08;18.83;;;22.20;99.90;;;;;;5051118;28;20589;-72
2023/05/08 09:58:42;;;;;;;45.80;18.63;;;22.50;99.90;;;;;;5042692;28;20186;-75
2023/05/08 10:01:35;;;;;;;46.63;18.58;;;22.40;99.90;;;;;;5053063;28;20232;-75
2023/05/08 10:04:02;;;;;;;44.13;18.00;;;22.80;99.90;;;;;;5048380;28;20275;-74
2023/05/08 10:06:29;;;;;;;45.60;19.58;;;22.90;99.90;;;;;;5044548;28;20189;-73
2023/05/08 10:09:07;;;;;;;42.10;19.88;;;22.80;99.90;;;;;;5048612;28;20677;-72
2023/05/08 10:11:33;;;;;;;43.95;19.17;;;22.50;99.90;;;;;;5051432;28;20272;-73
2023/05/08 10:13:58;;;;;;;47.90;20.15;;;22.90;99.90;;;;;;5084827;28;20616;-73
2023/05/08 10:16:27;;;;;;;43.22;19.48;;;23.40;99.90;;;;;;5052568;28;20193;-73
2023/05/08 10:18:59;;;;;;;42.60;19.63;;;23.40;99.90;;;;;;5051141;28;21255;-74
2023/05/08 10:21:28;;;;;;;40.50;18.52;;;23.40;99.90;;;;;;5052867;28;20185;-74
2023/05/08 10:23:56;;;;;;;35.53;16.80;;;23.30;99.90;;;;;;5043125;28;20213;-74
2023/05/08 10:26:29;;;;;;;45.92;19.85;;;22.90;99.90;;;;;;5049154;28;20247;-74
2023/05/08 10:28:57;;;;;;;36.55;18.10;;;22.90;99.90;;;;;;5052004;28;20178;-73
2023/05/08 10:31:34;;;;;;;40.75;18.73;;;23.20;99.90;;;;;;5041381;28;20186;-74
2023/05/08 10:34:01;;;;;;;37.75;17.05;;;23.20;99.90;;;;;;5052341;28;20260;-74
2023/05/08 10:36:29;;;;;;;37.80;17.45;;;23.20;99.90;;;;;;5051694;28;20186;-73
2023/05/08 10:38:57;;;;;;;36.70;16.95;;;23.40;99.90;;;;;;5044301;28;20213;-74
2023/05/08 10:41:23;;;;;;;36.63;16.15;;;23.50;99.90;;;;;;5046409;28;20252;-74
2023/05/08 10:43:49;;;;;;;37.20;17.77;;;23.40;99.90;;;;;;5053095;28;20631;-73
2023/05/08 10:46:38;;;;;;;42.90;19.63;;;23.70;99.90;;;;;;5048416;28;20185;-73
2023/05/08 10:49:33;;;;;;;34.50;16.02;;;23.70;99.90;;;;;;5044214;28;20188;-73
2023/05/08 10:52:26;;;;;;;32.83;15.43;;;23.70;99.90;;;;;;5050938;28;20531;-74
2023/05/08 10:55:01;;;;;;;27.23;13.45;;;23.10;99.90;;;;;;5044079;28;20178;-74
2023/05/08 10:57:26;;;;;;;32.72;15.15;;;23.60;99.90;;;;;;5043065;28;20592;-74
2023/05/08 10:59:52;;;;;;;28.88;13.75;;;23.60;99.90;;;;;;5056122;28;20316;-73
2023/05/08 11:02:30;;;;;;;27.38;13.13;;;23.60;99.90;;;;;;5055380;28;20232;-74
2023/05/08 11:05:14;;;;;;;25.60;13.50;;;23.70;99.90;;;;;;5055428;28;20173;-74
2023/05/08 11:07:56;;;;;;;27.85;14.23;;;23.50;99.90;;;;;;5042975;28;20532;-73
2023/05/08 11:10:35;;;;;;;24.88;12.25;;;23.40;99.90;;;;;;5054917;28;20186;-74
2023/05/08 11:13:03;;;;;;;33.75;13.15;;;23.00;99.90;;;;;;5054680;28;20204;-74
2023/05/08 11:15:39;;;;;;;21.58;12.15;;;23.00;99.90;;;;;;5053196;28;20281;-74
2023/05/08 11:18:10;;;;;;;24.23;11.68;;;23.20;99.90;;;;;;5051025;28;20270;-73
2023/05/08 11:20:39;;;;;;;26.83;11.75;;;23.60;99.90;;;;;;5047623;28;20230;-74
2023/05/08 11:23:31;;;;;;;22.45;11.93;;;23.70;99.90;;;;;;5051638;28;20264;-74
2023/05/08 11:26:11;;;;;;;25.50;11.45;;;23.60;99.90;;;;;;5049354;28;20680;-75
2023/05/08 11:28:39;;;;;;;20.77;11.30;;;23.70;99.90;;;;;;5039068;28;20672;-75
2023/05/08 11:31:07;;;;;;;25.95;10.90;;;23.30;99.90;;;;;;5081285;28;20181;-74
2023/05/08 11:33:36;;;;;;;18.92;11.27;;;23.40;99.90;;;;;;5087809;28;20201;-75
2023/05/08 11:36:24;;;;;;;23.00;11.32;;;23.60;99.90;;;;;;5055157;28;20658;-74
2023/05/08 11:39:11;;;;;;;22.45;11.07;;;23.40;99.90;;;;;;5044389;28;20178;-74
2023/05/08 11:41:38;;;;;;;20.10;11.95;;;23.30;99.90;;;;;;5046804;28;20198;-74
2023/05/08 11:44:03;;;;;;;20.75;9.98;;;23.30;99.90;;;;;;5050820;28;20256;-75
2023/05/08 11:46:50;;;;;;;21.55;10.98;;;23.70;99.90;;;;;;5039593;28;20268;-75
2023/05/08 11:49:18;;;;;;;17.50;9.18;;;23.90;99.90;;;;;;5053941;28;20247;-74
2023/05/08 11:51:47;;;;;;;17.00;9.25;;;24.10;99.90;;;;;;5053996;28;20210;-74
2023/05/08 11:54:18;;;;;;;19.17;9.65;;;24.20;99.90;;;;;;5050735;28;20596;-75
2023/05/08 11:56:52;;;;;;;24.23;10.57;;;24.00;99.90;;;;;;5042765;28;20210;-74
2023/05/08 11:59:20;;;;;;;23.45;11.48;;;23.90;99.90;;;;;;5053769;28;20205;-75
2023/05/08 12:01:48;;;;;;;24.75;11.23;;;24.30;99.90;;;;;;5044190;28;20197;-74
2023/05/08 12:04:13;;;;;;;19.35;9.32;;;23.90;99.90;;;;;;5054871;28;20186;-75
2023/05/08 12:06:40;;;;;;;20.38;10.38;;;23.70;99.90;;;;;;5046236;28;20308;-75
2023/05/08 12:09:17;;;;;;;17.88;9.70;;;23.70;99.90;;;;;;5054262;28;20194;-75
2023/05/08 12:11:44;;;;;;;16.13;9.27;;;23.90;99.90;;;;;;5054289;28;20190;-75
2023/05/08 12:14:11;;;;;;;17.33;9.38;;;23.80;99.90;;;;;;5054311;28;20670;-74
2023/05/08 12:16:38;;;;;;;19.17;10.57;;;23.50;99.90;;;;;;5086374;28;20196;-75
2023/05/08 12:19:09;;;;;;;17.50;8.43;;;23.50;99.90;;;;;;5054658;28;20724;-75
2023/05/08 12:21:35;;;;;;;13.38;7.90;;;23.50;99.90;;;;;;5054372;28;20192;-75
2023/05/08 12:24:05;;;;;;;13.20;7.45;;;23.80;99.90;;;;;;5048568;28;20539;-75
2023/05/08 12:26:36;;;;;;;14.63;8.45;;;24.00;99.90;;;;;;5052792;28;20178;-75
2023/05/08 12:29:04;;;;;;;15.35;8.98;;;23.80;99.90;;;;;;5054576;28;20676;-75
2023/05/08 12:31:29;;;;;;;16.88;8.90;;;24.20;99.90;;;;;;5052994;28;20187;-75
2023/05/08 12:33:55;;;;;;;20.90;9.35;;;24.50;99.90;;;;;;5049383;28;20232;-75
2023/05/08 12:36:21;;;;;;;16.10;8.82;;;24.50;99.90;;;;;;5049352;28;20196;-75